Time;durP1;ratioP1;P1;durP2;ratioP2;P2;SDS_P1;SDS_P2;PMS_P1;PMS_P2;Temp;Humidity;BMP_temperature;BMP_pressure;BME280_temperature;BME280_humidity;BME280_pressure;Samples;Min_cycle;Max_cycle;Signal;HPM_P1;HPM_P2
2021/06/29 00:00:25;;;;;;;14.23;8.75;;;19.10;1.00;;;;;;4973550;28;20113;-90
2021/06/29 00:03:00;;;;;;;10.63;7.97;;;19.10;1.00;;;;;;4974498;28;20035;-90
2021/06/29 00:05:26;;;;;;;10.15;9.10;;;19.10;1.00;;;;;;4974635;28;20026;-91
2021/06/29 00:07:51;;;;;;;9.00;7.75;;;19.10;1.00;;;;;;4974960;28;20490;-90
2021/06/29 00:10:17;;;;;;;9.10;7.75;;;19.00;1.00;;;;;;4974608;28;20039;-90
2021/06/29 00:12:43;;;;;;;10.45;7.25;;;19.20;1.00;;;;;;4975870;28;20034;-90
2021/06/29 00:15:10;;;;;;;10.07;7.15;;;19.00;1.00;;;;;;4975317;28;20031;-92
2021/06/29 00:17:35;;;;;;;10.70;7.50;;;19.00;1.00;;;;;;4975034;28;20062;-90
2021/06/29 00:20:10;;;;;;;11.68;7.80;;;19.00;1.00;;;;;;4972903;28;20058;-91
2021/06/29 00:22:36;;;;;;;13.80;7.70;;;18.70;1.00;;;;;;4974309;28;20035;-90
2021/06/29 00:25:02;;;;;;;16.50;8.05;;;19.00;1.00;;;;;;4973483;28;20219;-91
2021/06/29 00:27:28;;;;;;;9.52;8.63;;;18.90;1.00;;;;;;4973629;28;20037;-90
2021/06/29 00:29:53;;;;;;;9.27;8.30;;;18.90;1.00;;;;;;4955641;28;20398;-90
2021/06/29 00:32:19;;;;;;;11.02;8.10;;;18.90;1.00;;;;;;4969064;28;20023;-91
2021/06/29 00:34:45;;;;;;;12.85;8.13;;;18.90;1.00;;;;;;4974928;28;20103;-90
2021/06/29 00:37:10;;;;;;;11.52;8.25;;;19.00;1.00;;;;;;4973125;28;20026;-91
2021/06/29 00:39:36;;;;;;;10.85;7.95;;;19.00;1.00;;;;;;4973472;28;20066;-90
2021/06/29 00:42:01;;;;;;;13.07;8.18;;;19.00;1.00;;;;;;4973095;28;20038;-90
2021/06/29 00:44:27;;;;;;;12.07;8.05;;;18.80;1.00;;;;;;4972611;28;20077;-91
2021/06/29 00:46:54;;;;;;;13.68;8.77;;;18.80;1.00;;;;;;4974575;28;20069;-90
2021/06/29 00:49:20;;;;;;;9.02;8.18;;;18.80;1.00;;;;;;4973798;28;20093;-91
2021/06/29 00:51:46;;;;;;;10.40;7.72;;;18.80;1.00;;;;;;4974673;28;20038;-90
2021/06/29 00:54:15;;;;;;;13.25;7.25;;;18.80;1.00;;;;;;4974328;28;20505;-91
2021/06/29 00:56:43;;;;;;;11.75;8.38;;;19.00;1.00;;;;;;4972751;28;20041;-90
2021/06/29 00:59:09;;;;;;;9.88;7.85;;;19.00;1.00;;;;;;4973473;28;20033;-91
2021/06/29 01:01:34;;;;;;;13.27;8.15;;;19.00;1.00;;;;;;4974001;28;20056;-90
2021/06/29 01:04:00;;;;;;;9.15;8.23;;;19.00;1.00;;;;;;4969843;28;20150;-91
2021/06/29 01:06:28;;;;;;;11.73;8.40;;;19.00;1.00;;;;;;4972972;28;20117;-91
2021/06/29 01:08:54;;;;;;;10.38;8.68;;;19.10;1.00;;;;;;4973763;28;20031;-91
2021/06/29 01:11:20;;;;;;;9.25;7.85;;;19.10;1.00;;;;;;4974065;28;20031;-91
2021/06/29 01:13:46;;;;;;;11.98;8.13;;;19.00;1.00;;;;;;4972548;28;20038;-91
2021/06/29 01:16:13;;;;;;;9.80;8.00;;;19.10;1.00;;;;;;4973654;28;20030;-90
2021/06/29 01:18:40;;;;;;;8.63;7.80;;;19.20;1.00;;;;;;4972697;28;20403;-91
2021/06/29 01:21:11;;;;;;;9.38;8.25;;;19.20;1.00;;;;;;4974122;28;20023;-91
2021/06/29 01:23:37;;;;;;;13.77;8.30;;;19.20;1.00;;;;;;4972341;28;20039;-90
2021/06/29 01:26:36;;;;;;;9.48;8.30;;;19.20;1.00;;;;;;4974130;28;20027;-91
2021/06/29 01:29:07;;;;;;;10.35;8.65;;;19.10;1.00;;;;;;4976840;28;20055;-90
2021/06/29 01:31:34;;;;;;;13.43;8.52;;;19.10;1.00;;;;;;4975865;28;20483;-91
2021/06/29 01:34:00;;;;;;;14.43;8.02;;;19.10;1.00;;;;;;4977692;28;20058;-90
2021/06/29 01:36:34;;;;;;;10.85;8.00;;;19.10;1.00;;;;;;4977611;28;20447;-91
2021/06/29 01:39:01;;;;;;;9.30;8.27;;;19.10;1.00;;;;;;4976504;28;20075;-91
2021/06/29 01:41:27;;;;;;;10.23;8.02;;;19.20;1.00;;;;;;4977055;28;20499;-91
2021/06/29 01:43:59;;;;;;;11.82;8.00;;;19.10;1.00;;;;;;4972641;28;20491;-91
2021/06/29 01:46:33;;;;;;;10.13;7.80;;;19.10;1.00;;;;;;4965762;28;20054;-91
2021/06/29 01:49:00;;;;;;;12.90;8.25;;;19.00;1.00;;;;;;4961867;28;20041;-91
2021/06/29 01:51:26;;;;;;;9.63;7.88;;;19.00;1.00;;;;;;4977343;28;20387;-92
2021/06/29 01:53:52;;;;;;;10.65;8.32;;;19.00;1.00;;;;;;4976064;28;20561;-91
2021/06/29 01:56:26;;;;;;;10.73;8.63;;;19.00;1.00;;;;;;4974920;28;20027;-91
2021/06/29 01:58:54;;;;;;;11.73;8.23;;;18.90;1.00;;;;;;4976984;28;20042;-91
2021/06/29 02:01:20;;;;;;;12.70;7.85;;;18.90;1.00;;;;;;4976945;28;20482;-90
2021/06/29 02:03:46;;;;;;;9.98;8.30;;;19.00;1.00;;;;;;4975511;28;20129;-91
2021/06/29 02:06:13;;;;;;;12.38;8.20;;;19.10;1.00;;;;;;4975695;28;20135;-90
2021/06/29 02:08:40;;;;;;;9.65;7.90;;;19.10;1.00;;;;;;4975669;28;20035;-91
2021/06/29 02:11:05;;;;;;;8.55;7.75;;;18.90;1.00;;;;;;4976629;28;20066;-90
2021/06/29 02:13:31;;;;;;;9.85;7.95;;;18.90;1.00;;;;;;4977882;28;20117;-91
2021/06/29 02:15:58;;;;;;;10.82;7.97;;;18.90;1.00;;;;;;4977302;28;20034;-91
2021/06/29 02:18:24;;;;;;;10.75;8.73;;;18.90;1.00;;;;;;4974517;28;20026;-91
2021/06/29 02:20:50;;;;;;;14.70;9.40;;;19.00;1.00;;;;;;4976527;28;20037;-91
2021/06/29 02:23:16;;;;;;;9.73;8.85;;;19.00;1.00;;;;;;4977668;28;20478;-91
2021/06/29 02:25:42;;;;;;;11.40;9.18;;;19.00;1.00;;;;;;4976853;28;20031;-91
2021/06/29 02:28:07;;;;;;;11.98;9.50;;;19.10;1.00;;;;;;4976626;28;20045;-90
2021/06/29 02:30:33;;;;;;;14.38;9.27;;;19.00;1.00;;;;;;4975415;28;20031;-90
2021/06/29 02:32:59;;;;;;;10.52;9.35;;;18.90;1.00;;;;;;4976779;28;20038;-90
2021/06/29 02:35:25;;;;;;;11.68;8.90;;;18.90;1.00;;;;;;4972204;28;20081;-90
2021/06/29 02:37:50;;;;;;;12.55;9.23;;;19.00;1.00;;;;;;4955607;28;20035;-91
2021/06/29 02:40:16;;;;;;;13.00;8.77;;;18.90;1.00;;;;;;4963231;28;20093;-91
2021/06/29 02:42:42;;;;;;;13.90;8.95;;;18.90;1.00;;;;;;4974706;28;20043;-90
2021/06/29 02:45:08;;;;;;;13.27;9.07;;;18.90;1.00;;;;;;4957058;29;20038;-90
2021/06/29 02:47:37;;;;;;;12.18;9.25;;;18.90;1.00;;;;;;4973598;28;20399;-91
2021/06/29 02:50:05;;;;;;;10.40;9.30;;;18.80;1.00;;;;;;4974742;28;20062;-91
2021/06/29 02:52:32;;;;;;;9.55;8.63;;;18.80;1.00;;;;;;4974694;28;20090;-90
2021/06/29 02:55:03;;;;;;;16.42;9.25;;;18.90;1.00;;;;;;4975853;28;20030;-91
2021/06/29 02:57:29;;;;;;;12.40;8.65;;;18.90;1.00;;;;;;4974479;28;20053;-90
2021/06/29 02:59:54;;;;;;;11.82;9.23;;;19.00;1.00;;;;;;4991150;28;20035;-90
2021/06/29 03:02:20;;;;;;;9.27;8.38;;;19.00;1.00;;;;;;4974422;28;20045;-91
2021/06/29 03:04:45;;;;;;;13.68;9.50;;;19.00;1.00;;;;;;4974488;28;20118;-90
2021/06/29 03:07:11;;;;;;;9.63;8.63;;;19.10;1.00;;;;;;4975883;28;20050;-91
2021/06/29 03:09:37;;;;;;;10.95;9.45;;;19.10;1.00;;;;;;4974117;28;20027;-90
2021/06/29 03:12:03;;;;;;;11.75;9.82;;;19.20;1.00;;;;;;4975546;28;20035;-90
2021/06/29 03:14:28;;;;;;;10.88;9.82;;;19.20;1.00;;;;;;4975687;28;20467;-91
2021/06/29 03:16:54;;;;;;;14.45;9.07;;;19.20;1.00;;;;;;4974363;28;20031;-90
2021/06/29 03:19:20;;;;;;;10.60;9.32;;;19.20;1.00;;;;;;4974426;28;20460;-91
2021/06/29 03:21:46;;;;;;;12.30;9.88;;;19.20;1.00;;;;;;4974334;28;20062;-90
2021/06/29 03:24:11;;;;;;;13.45;10.18;;;19.20;1.00;;;;;;4974575;28;20031;-91
2021/06/29 03:26:38;;;;;;;14.90;10.23;;;19.20;1.00;;;;;;4975062;28;20546;-90
2021/06/29 03:29:04;;;;;;;11.25;10.10;;;19.10;1.00;;;;;;4975347;28;20030;-91
2021/06/29 03:31:32;;;;;;;19.35;10.65;;;19.10;1.00;;;;;;4974029;28;20025;-91
2021/06/29 03:33:57;;;;;;;12.80;10.25;;;19.10;1.00;;;;;;4975833;28;20039;-91
2021/06/29 03:36:23;;;;;;;12.65;9.95;;;19.10;1.00;;;;;;4973898;28;20030;-90
2021/06/29 03:38:49;;;;;;;11.88;9.93;;;19.00;1.00;;;;;;4973700;28;20039;-90
2021/06/29 03:41:15;;;;;;;12.55;10.25;;;19.10;1.00;;;;;;4975712;28;20081;-91
2021/06/29 03:43:40;;;;;;;13.25;10.88;;;19.20;1.00;;;;;;4974983;28;20039;-91
2021/06/29 03:46:06;;;;;;;12.27;10.50;;;19.20;1.00;;;;;;4971788;28;20026;-91
2021/06/29 03:48:33;;;;;;;14.90;10.52;;;19.20;1.00;;;;;;4973728;28;20376;-91
2021/06/29 03:50:58;;;;;;;16.05;10.90;;;19.20;1.00;;;;;;4973360;28;20065;-92
2021/06/29 03:53:24;;;;;;;15.35;10.38;;;19.20;1.00;;;;;;4975628;28;20054;-91
2021/06/29 03:55:50;;;;;;;16.85;11.05;;;19.20;1.00;;;;;;4973597;28;20037;-91
2021/06/29 03:58:15;;;;;;;17.55;11.85;;;19.20;1.00;;;;;;4973184;28;20499;-91
2021/06/29 04:00:41;;;;;;;17.33;10.52;;;19.20;1.00;;;;;;4975168;28;20034;-91
2021/06/29 04:03:06;;;;;;;14.27;10.75;;;19.20;1.00;;;;;;4973998;28;20090;-91
2021/06/29 04:05:32;;;;;;;14.88;10.57;;;19.20;1.00;;;;;;4973083;28;20069;-90
2021/06/29 04:07:58;;;;;;;11.27;9.65;;;19.20;1.00;;;;;;4974380;28;20037;-90
2021/06/29 04:10:23;;;;;;;15.48;10.90;;;19.20;1.00;;;;;;4973549;28;20081;-90
2021/06/29 04:12:49;;;;;;;12.77;10.98;;;19.20;1.00;;;;;;4973710;28;20035;-90
2021/06/29 04:15:14;;;;;;;11.50;10.40;;;19.30;1.00;;;;;;4989468;28;20019;-89
2021/06/29 04:17:40;;;;;;;12.93;9.65;;;19.30;1.00;;;;;;4971036;28;20042;-89
2021/06/29 04:20:08;;;;;;;13.05;10.90;;;19.30;1.00;;;;;;4973054;28;20109;-90
2021/06/29 04:22:34;;;;;;;13.55;10.50;;;19.30;1.00;;;;;;4969949;28;20136;-89
2021/06/29 04:25:00;;;;;;;11.38;9.30;;;19.30;1.00;;;;;;4973899;28;20022;-90
2021/06/29 04:27:26;;;;;;;10.65;9.02;;;19.30;1.00;;;;;;4976644;28;20035;-90
2021/06/29 04:29:52;;;;;;;12.63;10.05;;;19.30;1.00;;;;;;4975688;28;20410;-90
2021/06/29 04:32:19;;;;;;;9.68;8.52;;;19.30;1.00;;;;;;4975963;28;20058;-92
2021/06/29 04:34:44;;;;;;;12.85;9.68;;;19.20;1.00;;;;;;4973974;28;20046;-90
2021/06/29 04:37:10;;;;;;;15.95;9.77;;;19.20;1.00;;;;;;4972976;28;20026;-91
2021/06/29 04:39:36;;;;;;;11.20;9.80;;;19.10;1.00;;;;;;4974178;28;20059;-90
2021/06/29 04:42:02;;;;;;;17.45;9.80;;;19.20;1.00;;;;;;4973014;28;20067;-90
2021/06/29 04:44:27;;;;;;;14.48;9.73;;;19.20;1.00;;;;;;4974032;28;20030;-90
2021/06/29 04:46:55;;;;;;;11.13;9.90;;;19.30;1.00;;;;;;4974321;28;20043;-91
2021/06/29 04:49:25;;;;;;;10.90;9.82;;;19.30;1.00;;;;;;4972492;28;20517;-91
2021/06/29 04:51:50;;;;;;;12.60;10.68;;;19.20;1.00;;;;;;4974375;28;20057;-91
2021/06/29 04:54:16;;;;;;;14.15;9.70;;;19.20;1.00;;;;;;4973272;28;20062;-91
2021/06/29 04:56:42;;;;;;;10.60;9.10;;;19.20;1.00;;;;;;4972628;28;20058;-90
2021/06/29 04:59:07;;;;;;;10.40;9.07;;;19.20;1.00;;;;;;4972846;28;20106;-91
2021/06/29 05:01:33;;;;;;;12.13;9.30;;;19.20;1.00;;;;;;4975696;28;20026;-91
2021/06/29 05:04:01;;;;;;;10.40;9.32;;;19.20;1.00;;;;;;4976787;28;20074;-89
2021/06/29 05:06:27;;;;;;;10.50;9.32;;;19.30;1.00;;;;;;4976294;28;20026;-89
2021/06/29 05:08:52;;;;;;;12.68;10.38;;;19.30;1.00;;;;;;4977051;28;20178;-89
2021/06/29 05:11:18;;;;;;;11.60;9.98;;;19.20;1.00;;;;;;4977229;28;20499;-90
2021/06/29 05:13:43;;;;;;;10.35;9.43;;;19.20;1.00;;;;;;4975887;28;20031;-90
2021/06/29 05:16:09;;;;;;;11.32;9.98;;;19.20;1.00;;;;;;4974252;28;20053;-90
2021/06/29 05:18:35;;;;;;;14.95;9.90;;;19.20;1.00;;;;;;4976617;28;20042;-89
2021/06/29 05:21:01;;;;;;;14.48;10.95;;;19.20;1.00;;;;;;4977798;28;20030;-90
2021/06/29 05:23:28;;;;;;;13.18;11.85;;;19.00;1.00;;;;;;4977188;28;20110;-90
2021/06/29 05:25:53;;;;;;;12.77;10.98;;;18.90;1.00;;;;;;4977486;28;20114;-91
2021/06/29 05:28:21;;;;;;;13.40;10.55;;;19.00;1.00;;;;;;4978865;28;20062;-96
2021/06/29 05:30:48;;;;;;;14.57;11.60;;;19.00;1.00;;;;;;4995304;28;20031;-96
2021/06/29 05:33:14;;;;;;;19.83;11.05;;;19.00;1.00;;;;;;4979994;28;20031;-96
2021/06/29 05:35:40;;;;;;;13.93;11.57;;;19.10;1.00;;;;;;4979172;28;20129;-95
2021/06/29 05:38:07;;;;;;;17.13;10.93;;;19.10;1.00;;;;;;4977980;28;20046;-95
2021/06/29 05:40:33;;;;;;;12.77;10.70;;;19.10;1.00;;;;;;4979013;28;20442;-96
2021/06/29 05:42:59;;;;;;;13.18;10.30;;;19.20;1.00;;;;;;4978932;28;20070;-96
2021/06/29 05:45:25;;;;;;;13.98;9.73;;;19.30;1.00;;;;;;4979682;28;20026;-96
2021/06/29 05:47:52;;;;;;;10.55;9.13;;;19.40;1.00;;;;;;4978414;28;20038;-95
2021/06/29 05:50:18;;;;;;;11.82;8.90;;;19.50;1.00;;;;;;4978326;28;20049;-93
2021/06/29 05:52:45;;;;;;;11.32;9.02;;;19.40;1.00;;;;;;4978854;28;20050;-95
2021/06/29 05:55:12;;;;;;;9.60;8.60;;;19.30;1.00;;;;;;4978510;28;20553;-96
2021/06/29 05:57:38;;;;;;;11.38;7.82;;;19.20;1.00;;;;;;4977458;28;20047;-96
2021/06/29 06:00:12;;;;;;;7.80;4.95;;;19.20;1.00;;;;;;4993180;28;20106;-92
2021/06/29 06:02:41;;;;;;;8.20;6.68;;;19.10;1.00;;;;;;4977628;28;20065;-94
2021/06/29 06:05:09;;;;;;;8.00;6.35;;;19.00;1.00;;;;;;4978105;28;20526;-94
2021/06/29 06:07:35;;;;;;;9.52;6.22;;;19.00;1.00;;;;;;4977972;28;20033;-94
2021/06/29 06:10:02;;;;;;;14.55;5.43;;;19.20;1.00;;;;;;4958310;29;20499;-96
2021/06/29 06:12:28;;;;;;;7.18;5.07;;;19.50;1.00;;;;;;4974434;28;20051;-95
2021/06/29 06:14:55;;;;;;;5.72;4.30;;;19.70;1.00;;;;;;4977308;28;20042;-96
2021/06/29 06:17:21;;;;;;;6.38;4.72;;;19.80;1.00;;;;;;4978499;28;20019;-96
2021/06/29 06:19:47;;;;;;;9.60;4.75;;;20.00;1.00;;;;;;4978075;28;20042;-96
2021/06/29 06:22:13;;;;;;;5.18;3.60;;;20.30;1.00;;;;;;4977959;28;20065;-94
2021/06/29 06:24:38;;;;;;;5.70;4.50;;;20.30;1.00;;;;;;4977190;28;20058;-96
2021/06/29 06:27:07;;;;;;;8.38;4.30;;;20.30;1.00;;;;;;4976671;28;20034;-96
2021/06/29 06:29:33;;;;;;;5.60;3.95;;;20.20;1.00;;;;;;4977847;28;20030;-96
2021/06/29 06:31:58;;;;;;;9.73;4.90;;;20.00;1.00;;;;;;4977949;28;20027;-96
2021/06/29 06:34:24;;;;;;;7.47;4.38;;;20.10;1.00;;;;;;4978582;28;20117;-96
2021/06/29 06:36:50;;;;;;;6.35;4.55;;;19.90;1.00;;;;;;4978740;28;20033;-96
2021/06/29 06:39:15;;;;;;;10.45;4.22;;;19.90;1.00;;;;;;4978218;28;20027;-95
2021/06/29 06:41:41;;;;;;;6.10;4.90;;;19.90;1.00;;;;;;4978964;28;20105;-95
2021/06/29 06:44:06;;;;;;;6.25;4.80;;;19.80;1.00;;;;;;4977756;28;20522;-95
2021/06/29 06:46:32;;;;;;;8.13;4.88;;;19.70;1.00;;;;;;4975188;28;20134;-93
2021/06/29 06:48:58;;;;;;;7.70;4.88;;;19.60;1.00;;;;;;4974568;28;20221;-92
2021/06/29 06:51:23;;;;;;;8.02;4.65;;;19.60;1.00;;;;;;4974024;28;20041;-91
2021/06/29 06:53:50;;;;;;;9.27;5.15;;;19.60;1.00;;;;;;4973962;28;20082;-90
2021/06/29 06:56:16;;;;;;;8.65;5.88;;;19.60;1.00;;;;;;4974493;28;20053;-90
2021/06/29 06:58:46;;;;;;;8.20;5.07;;;19.60;1.00;;;;;;4973203;28;20530;-91
2021/06/29 07:01:14;;;;;;;5.85;4.60;;;19.50;1.00;;;;;;4973925;28;20038;-92
2021/06/29 07:03:39;;;;;;;9.32;4.65;;;19.40;1.00;;;;;;4973293;28;20039;-90
2021/06/29 07:06:06;;;;;;;6.57;4.50;;;19.60;1.00;;;;;;4975154;28;20030;-91
2021/06/29 07:08:32;;;;;;;8.82;4.68;;;19.60;1.00;;;;;;4974503;28;20034;-91
2021/06/29 07:10:59;;;;;;;5.53;3.65;;;19.70;1.00;;;;;;4972858;28;20026;-91
2021/06/29 07:13:24;;;;;;;5.47;4.00;;;19.80;1.00;;;;;;4974293;28;20027;-91
2021/06/29 07:15:50;;;;;;;3.50;3.20;;;19.90;1.00;;;;;;4973330;28;20027;-90
2021/06/29 07:18:17;;;;;;;4.75;3.00;;;19.90;1.00;;;;;;4976156;28;20030;-91
2021/06/29 07:20:44;;;;;;;5.43;3.20;;;19.80;1.00;;;;;;4975352;28;20034;-92
2021/06/29 07:23:10;;;;;;;7.32;3.83;;;19.60;1.00;;;;;;4975432;28;20039;-93
2021/06/29 07:25:36;;;;;;;8.50;3.95;;;19.70;1.00;;;;;;4975804;28;20394;-92
2021/06/29 07:28:02;;;;;;;5.00;3.20;;;20.00;1.00;;;;;;4974642;28;20545;-92
2021/06/29 07:30:28;;;;;;;3.95;3.10;;;20.20;1.00;;;;;;4975507;28;20031;-93
2021/06/29 07:35:30;;;;;;;6.07;3.03;;;20.70;1.00;;;;;;5152779;23;20059;-96
2021/06/29 07:37:56;;;;;;;5.00;2.75;;;20.90;1.00;;;;;;5014145;28;20030;-96
2021/06/29 07:42:58;;;;;;;3.70;2.40;;;21.20;1.00;;;;;;5011546;23;20081;-86
2021/06/29 07:45:28;;;;;;;3.53;2.70;;;21.30;1.00;;;;;;5011860;28;20033;-85
2021/06/29 07:47:57;;;;;;;6.15;2.60;;;21.40;1.00;;;;;;5011758;28;20121;-86
2021/06/29 07:50:23;;;;;;;3.88;2.75;;;21.50;1.00;;;;;;5011342;28;20396;-86
2021/06/29 07:52:48;;;;;;;10.15;7.18;;;21.60;1.00;;;;;;5010871;28;20371;-86
2021/06/29 07:55:14;;;;;;;4.05;3.03;;;22.00;1.00;;;;;;5011160;28;20112;-86
2021/06/29 07:57:40;;;;;;;3.50;2.70;;;22.00;1.00;;;;;;5011796;28;20494;-87
2021/06/29 08:00:09;;;;;;;2.90;2.40;;;22.10;1.00;;;;;;5012616;28;20060;-87
2021/06/29 08:02:34;;;;;;;4.38;2.70;;;22.20;1.00;;;;;;5011645;28;20038;-87
2021/06/29 08:05:00;;;;;;;3.38;2.50;;;21.90;1.00;;;;;;5011117;28;20026;-86
2021/06/29 08:07:27;;;;;;;4.15;2.22;;;21.80;1.00;;;;;;5012103;28;20076;-86
2021/06/29 08:09:53;;;;;;;7.00;2.30;;;21.70;1.00;;;;;;5012216;28;20036;-87
2021/06/29 08:12:19;;;;;;;4.00;2.40;;;21.50;1.00;;;;;;5012183;28;20109;-86
2021/06/29 08:14:45;;;;;;;3.70;2.47;;;21.60;1.00;;;;;;5011908;28;20088;-87
2021/06/29 08:17:11;;;;;;;2.72;2.40;;;21.50;1.00;;;;;;5012139;28;20386;-87
2021/06/29 08:19:37;;;;;;;5.93;2.35;;;21.30;1.00;;;;;;5012439;28;20043;-87
2021/06/29 08:22:03;;;;;;;3.20;1.90;;;21.10;1.00;;;;;;5012055;28;20410;-87
2021/06/29 08:24:28;;;;;;;2.00;1.80;;;20.90;1.00;;;;;;5012354;28;20038;-86
2021/06/29 08:26:54;;;;;;;2.10;1.90;;;21.00;1.00;;;;;;5011567;28;20025;-87
2021/06/29 08:29:19;;;;;;;2.10;1.90;;;21.00;99.90;;;;;;5012497;28;20065;-86
2021/06/29 08:31:45;;;;;;;4.22;1.63;;;20.90;99.90;;;;;;5011939;28;20424;-86
2021/06/29 08:34:11;;;;;;;2.28;1.75;;;20.80;99.90;;;;;;5011822;28;20029;-87
2021/06/29 08:36:42;;;;;;;2.13;1.30;;;20.90;99.90;;;;;;5016426;28;20453;-86
2021/06/29 08:39:10;;;;;;;2.33;1.60;;;20.90;99.90;;;;;;5014692;28;20144;-87
2021/06/29 08:41:44;;;;;;;3.33;1.60;;;21.20;99.90;;;;;;5015277;28;20516;-87
2021/06/29 08:44:10;;;;;;;3.70;1.85;;;21.50;99.90;;;;;;5016193;28;20045;-87
2021/06/29 08:46:36;;;;;;;2.45;1.75;;;21.90;99.90;;;;;;5015803;28;20490;-87
2021/06/29 08:49:04;;;;;;;2.40;1.40;;;22.00;99.90;;;;;;5016003;28;20029;-87
2021/06/29 08:51:30;;;;;;;2.15;1.50;;;22.00;99.90;;;;;;5016395;28;20045;-87
2021/06/29 08:53:56;;;;;;;3.92;2.03;;;22.00;99.90;;;;;;5016087;28;20029;-88
2021/06/29 08:56:21;;;;;;;2.03;1.63;;;22.20;99.90;;;;;;5015736;28;20034;-87
2021/06/29 08:58:47;;;;;;;2.63;1.33;;;22.20;99.90;;;;;;5015133;28;20057;-88
2021/06/29 09:01:14;;;;;;;1.60;1.50;;;22.40;99.90;;;;;;5014969;28;20456;-87
2021/06/29 09:03:40;;;;;;;1.42;1.33;;;22.10;99.90;;;;;;5016204;28;20037;-87
2021/06/29 09:06:07;;;;;;;1.77;1.50;;;22.30;99.90;;;;;;5014812;28;20030;-88
2021/06/29 09:08:38;;;;;;;2.85;1.50;;;22.50;99.90;;;;;;5015218;28;20116;-87
2021/06/29 09:11:17;;;;;;;3.45;1.63;;;23.00;99.90;;;;;;5015588;28;20031;-87
2021/06/29 09:14:09;;;;;;;2.20;1.40;;;23.50;99.90;;;;;;5015084;28;20045;-87
2021/06/29 09:16:36;;;;;;;1.30;1.23;;;23.50;99.90;;;;;;5014400;28;20512;-87
2021/06/29 09:19:02;;;;;;;1.40;1.30;;;23.60;99.90;;;;;;5015533;28;20478;-87
2021/06/29 09:21:28;;;;;;;1.33;1.10;;;23.50;99.90;;;;;;5016296;28;20018;-87
2021/06/29 09:23:54;;;;;;;1.70;1.20;;;23.80;99.90;;;;;;5015306;28;20128;-87
2021/06/29 09:26:26;;;;;;;1.20;1.10;;;23.60;99.90;;;;;;5015339;28;20030;-87
2021/06/29 09:28:57;;;;;;;1.92;1.33;;;23.20;99.90;;;;;;5015031;28;20046;-87
2021/06/29 09:31:27;;;;;;;1.20;1.10;;;23.80;99.90;;;;;;5015072;28;20022;-87
2021/06/29 09:33:55;;;;;;;1.70;1.10;;;24.30;99.90;;;;;;5004399;28;20027;-86
2021/06/29 09:36:29;;;;;;;2.72;1.38;;;24.30;99.90;;;;;;5000162;28;20034;-90
2021/06/29 09:38:57;;;;;;;1.67;1.50;;;23.90;99.90;;;;;;5012449;28;20084;-87
2021/06/29 09:41:32;;;;;;;3.30;1.30;;;24.00;99.90;;;;;;5004181;28;20049;-89
2021/06/29 09:44:24;;;;;;;1.48;1.30;;;24.60;99.90;;;;;;5007651;28;20088;-86
2021/06/29 09:46:49;;;;;;;6.75;1.33;;;24.30;99.90;;;;;;5002921;28;20091;-85
2021/06/29 09:49:16;;;;;;;1.27;1.10;;;23.80;99.90;;;;;;5012947;28;20029;-87
2021/06/29 09:51:49;;;;;;;1.60;1.20;;;24.20;99.90;;;;;;5013572;28;20044;-85
2021/06/29 09:54:15;;;;;;;1.58;1.30;;;24.30;99.90;;;;;;5030390;28;20026;-87
2021/06/29 09:56:47;;;;;;;4.65;1.50;;;24.10;99.90;;;;;;5011352;28;20363;-86
2021/06/29 09:59:24;;;;;;;1.70;1.40;;;24.70;99.90;;;;;;5010587;28;20041;-86
2021/06/29 10:02:06;;;;;;;2.20;1.50;;;25.20;99.90;;;;;;5010806;28;20490;-85
2021/06/29 10:04:32;;;;;;;4.72;1.20;;;25.40;99.90;;;;;;5012494;28;20034;-85
2021/06/29 10:07:12;;;;;;;1.00;1.00;;;25.20;99.90;;;;;;5011042;28;20029;-86
2021/06/29 10:09:37;;;;;;;1.20;1.10;;;25.40;99.90;;;;;;5010615;28;20430;-86
2021/06/29 10:12:07;;;;;;;2.85;1.63;;;25.60;99.90;;;;;;5015096;28;20040;-90
2021/06/29 10:14:34;;;;;;;1.70;1.30;;;25.80;99.90;;;;;;5011683;28;20030;-86
2021/06/29 10:17:00;;;;;;;1.38;1.10;;;26.00;99.90;;;;;;5008112;28;20072;-87
2021/06/29 10:21:59;;;;;;;1.42;1.10;;;25.50;99.90;;;;;;5000486;28;20022;-90
2021/06/29 10:24:27;;;;;;;2.25;1.15;;;25.10;99.90;;;;;;5010525;28;20064;-88
2021/06/29 10:26:56;;;;;;;1.90;1.35;;;25.20;99.90;;;;;;5002987;28;20034;-87
2021/06/29 10:29:23;;;;;;;1.38;1.27;;;25.00;99.90;;;;;;5009793;28;20099;-88
2021/06/29 10:31:54;;;;;;;1.98;1.10;;;25.10;99.90;;;;;;5010045;28;20054;-85
2021/06/29 10:34:21;;;;;;;2.25;1.10;;;24.90;99.90;;;;;;5020686;28;20074;-88
2021/06/29 10:36:50;;;;;;;1.50;1.27;;;24.80;99.90;;;;;;5012705;28;20399;-88
2021/06/29 10:39:19;;;;;;;1.30;1.20;;;25.20;99.90;;;;;;5013536;28;20474;-88
2021/06/29 10:41:48;;;;;;;1.65;1.38;;;25.50;99.90;;;;;;5020614;28;20073;-88
2021/06/29 10:44:17;;;;;;;1.17;1.00;;;25.70;99.90;;;;;;5014860;28;20417;-88
2021/06/29 10:46:51;;;;;;;1.40;1.05;;;25.60;99.90;;;;;;5016935;28;20084;-89
2021/06/29 10:49:30;;;;;;;1.13;0.90;;;25.40;99.90;;;;;;5015987;28;20021;-89
2021/06/29 10:51:58;;;;;;;1.30;1.20;;;25.30;99.90;;;;;;4999879;28;20088;-87
2021/06/29 10:54:47;;;;;;;1.35;1.10;;;24.50;99.90;;;;;;5009953;28;20022;-88
2021/06/29 10:57:16;;;;;;;1.40;1.30;;;24.90;99.90;;;;;;5013248;28;20437;-90
2021/06/29 10:59:50;;;;;;;2.58;1.40;;;25.00;99.90;;;;;;5014431;28;20028;-90
2021/06/29 11:02:30;;;;;;;1.20;1.10;;;25.20;99.90;;;;;;5014339;28;20030;-89
2021/06/29 11:05:01;;;;;;;1.20;1.10;;;25.70;99.90;;;;;;5013738;28;20510;-90
2021/06/29 11:07:26;;;;;;;1.10;1.00;;;26.10;99.90;;;;;;5015764;28;20561;-89
2021/06/29 11:09:54;;;;;;;1.23;1.13;;;26.30;99.90;;;;;;5013187;28;20068;-89
2021/06/29 11:12:29;;;;;;;1.30;1.20;;;26.40;99.90;;;;;;5014587;28;20084;-87
2021/06/29 11:14:57;;;;;;;0.98;0.98;;;26.40;99.90;;;;;;5012677;28;20049;-89
2021/06/29 11:17:49;;;;;;;2.03;1.10;;;26.70;99.90;;;;;;5012648;28;20025;-85
2021/06/29 11:20:39;;;;;;;1.20;1.10;;;26.60;99.90;;;;;;5012357;28;20052;-85
2021/06/29 11:23:15;;;;;;;3.42;1.20;;;26.00;99.90;;;;;;5002268;28;20053;-86
2021/06/29 11:25:50;;;;;;;1.58;1.48;;;25.30;99.90;;;;;;5012348;28;20057;-86
2021/06/29 11:28:28;;;;;;;1.58;1.20;;;24.90;99.90;;;;;;5012982;28;20042;-87
2021/06/29 11:31:09;;;;;;;1.52;1.20;;;24.60;99.90;;;;;;5011420;28;20034;-87
2021/06/29 11:33:56;;;;;;;2.53;1.40;;;24.50;99.90;;;;;;5009673;28;20475;-88
2021/06/29 11:36:24;;;;;;;2.08;1.00;;;24.90;99.90;;;;;;5012750;28;20027;-87
2021/06/29 11:39:09;;;;;;;1.20;1.10;;;25.10;99.90;;;;;;5012796;28;20034;-88
2021/06/29 11:41:37;;;;;;;2.55;1.10;;;25.00;99.90;;;;;;5012453;28;20064;-88
2021/06/29 11:44:05;;;;;;;2.05;0.98;;;25.50;99.90;;;;;;5013248;28;20069;-88
2021/06/29 11:46:55;;;;;;;3.55;1.05;;;26.00;99.90;;;;;;5012624;28;20478;-88
2021/06/29 11:49:37;;;;;;;1.30;1.20;;;26.10;99.90;;;;;;5012655;28;20054;-88
2021/06/29 11:52:18;;;;;;;4.28;1.40;;;25.90;99.90;;;;;;4997830;28;20072;-88
2021/06/29 11:55:02;;;;;;;1.10;1.00;;;26.00;99.90;;;;;;5013023;28;20076;-88
2021/06/29 11:57:42;;;;;;;2.08;1.05;;;26.50;99.90;;;;;;5009467;28;20104;-88
2021/06/29 12:00:25;;;;;;;1.30;0.90;;;27.00;99.90;;;;;;5011575;28;20026;-88
2021/06/29 12:02:57;;;;;;;1.80;1.10;;;27.50;99.90;;;;;;5012552;28;20042;-88
2021/06/29 12:05:25;;;;;;;1.33;1.23;;;27.20;99.90;;;;;;5011882;28;20018;-88
2021/06/29 12:07:57;;;;;;;1.23;1.13;;;27.30;99.90;;;;;;5012503;28;20038;-88
2021/06/29 12:10:27;;;;;;;1.63;1.30;;;27.60;99.90;;;;;;5012056;28;20021;-88
2021/06/29 12:12:59;;;;;;;1.08;1.05;;;27.40;99.90;;;;;;5012798;28;20390;-88
2021/06/29 12:15:27;;;;;;;1.67;1.05;;;27.10;99.90;;;;;;5008494;28;20025;-87
2021/06/29 12:18:07;;;;;;;1.08;1.00;;;26.70;99.90;;;;;;5012193;28;20080;-88
2021/06/29 12:20:57;;;;;;;1.17;1.00;;;26.40;99.90;;;;;;5012060;28;20071;-88
2021/06/29 12:23:28;;;;;;;2.92;2.30;;;26.00;99.90;;;;;;5002559;28;20123;-88
2021/06/29 12:25:57;;;;;;;1.95;1.50;;;26.30;99.90;;;;;;5011359;28;20087;-88
2021/06/29 12:28:25;;;;;;;1.15;1.05;;;26.30;99.90;;;;;;5012176;28;20045;-88
2021/06/29 12:30:56;;;;;;;1.80;1.13;;;27.20;99.90;;;;;;5012223;28;20029;-88
2021/06/29 12:33:28;;;;;;;3.10;1.10;;;26.50;99.90;;;;;;5011175;28;20033;-88
2021/06/29 12:36:03;;;;;;;0.93;0.80;;;26.00;99.90;;;;;;5012608;28;20029;-88
2021/06/29 12:38:31;;;;;;;0.90;0.90;;;25.90;99.90;;;;;;5012015;28;20033;-88
2021/06/29 12:41:00;;;;;;;1.05;1.05;;;25.80;99.90;;;;;;5011988;28;20123;-88
2021/06/29 12:43:37;;;;;;;1.05;0.88;;;25.80;99.90;;;;;;5012260;28;20069;-88
2021/06/29 12:46:36;;;;;;;1.63;1.20;;;26.10;99.90;;;;;;4996960;28;20042;-88
2021/06/29 12:49:17;;;;;;;1.17;1.00;;;26.90;99.90;;;;;;4985343;28;20565;-88
2021/06/29 12:51:48;;;;;;;1.23;1.05;;;27.30;99.90;;;;;;5012836;28;20030;-88
2021/06/29 12:54:21;;;;;;;1.50;1.13;;;28.70;99.90;;;;;;5011480;28;20423;-88
2021/06/29 12:56:59;;;;;;;3.45;1.30;;;30.90;99.90;;;;;;5012167;28;20032;-88
2021/06/29 12:59:31;;;;;;;1.10;0.88;;;30.30;99.90;;;;;;5011693;28;20026;-89
2021/06/29 13:02:10;;;;;;;0.90;0.82;;;30.70;99.90;;;;;;5011347;28;20372;-87